createdAt,value
2018-04-26T00:02:02.329Z,88.29
2018-04-26T00:04:31.315Z,89.25
2018-04-26T00:07:00.332Z,89.18
2018-04-26T00:09:28.611Z,89.89
2018-04-26T00:11:56.868Z,89.92
2018-04-26T00:14:25.897Z,90.34
2018-04-26T00:16:54.150Z,90.13
2018-04-26T00:19:23.170Z,89.83
2018-04-26T00:21:51.433Z,89.46
2018-04-26T00:24:20.450Z,90.08
2018-04-26T00:26:48.714Z,90.48
2018-04-26T00:29:16.980Z,90.39
2018-04-26T00:31:46.019Z,88.68
2018-04-26T00:34:14.274Z,88.53
2018-04-26T00:36:42.538Z,88.17
2018-04-26T00:39:11.567Z,88.07
2018-04-26T00:41:39.830Z,88.46
2018-04-26T00:44:08.086Z,88.89
2018-04-26T00:46:37.450Z,88.71
2018-04-26T00:49:05.709Z,89.19
2018-04-26T00:51:51.602Z,88.69
2018-04-26T00:54:19.862Z,89.48
2018-04-26T00:56:48.882Z,88.94
2018-04-26T00:59:17.153Z,88.91
2018-04-26T01:01:45.424Z,88.73
2018-04-26T01:04:13.677Z,89.09
2018-04-26T01:06:41.940Z,89.70
2018-04-26T01:09:10.195Z,89.73
2018-04-26T01:11:38.458Z,89.89
2018-04-26T01:14:06.714Z,89.73
2018-04-26T01:16:35.751Z,89.90
2018-04-26T01:19:04.001Z,90.10
2018-04-26T01:21:32.266Z,89.78
2018-04-26T01:24:01.293Z,90.15
2018-04-26T01:26:29.565Z,89.30
2018-04-26T01:28:57.832Z,89.71
2018-04-26T01:31:26.862Z,89.64
2018-04-26T01:33:55.742Z,90.13
2018-04-26T01:36:41.639Z,88.98
2018-04-26T01:39:09.895Z,88.94
2018-04-26T01:41:38.169Z,90.14
2018-04-26T01:44:07.198Z,90.41
2018-04-26T01:46:35.467Z,88.95
2018-04-26T01:49:03.724Z,88.37
2018-04-26T01:51:32.757Z,87.25
2018-04-26T01:54:02.665Z,85.60
2018-04-26T01:56:30.928Z,85.96
2018-04-26T01:58:59.182Z,86.28
2018-04-26T02:01:27.438Z,85.55
2018-04-26T02:03:55.704Z,84.69
2018-04-26T02:06:23.968Z,85.51
2018-04-26T02:08:52.235Z,85.72
2018-04-26T02:11:21.259Z,85.22
2018-04-26T02:13:49.515Z,86.58
2018-04-26T02:16:17.792Z,88.85
2018-04-26T02:18:46.816Z,89.41
2018-04-26T02:21:15.083Z,89.45
2018-04-26T02:23:43.330Z,89.86
2018-04-26T02:26:12.367Z,89.25
2018-04-26T02:28:40.616Z,86.52
2018-04-26T02:31:09.655Z,85.60
2018-04-26T02:33:38.833Z,84.96
2018-04-26T02:36:07.102Z,85.62
2018-04-26T02:38:36.131Z,86.16
2018-04-26T02:41:04.405Z,85.50
2018-04-26T02:43:32.662Z,86.89
2018-04-26T02:46:01.688Z,88.97
2018-04-26T02:48:29.951Z,87.85
2018-04-26T02:50:58.203Z,87.95
2018-04-26T02:53:27.243Z,88.63
2018-04-26T02:55:55.503Z,89.06
2018-04-26T02:58:23.771Z,86.47
2018-04-26T03:00:52.789Z,86.19
2018-04-26T03:03:21.063Z,86.51
2018-04-26T03:05:50.076Z,87.45
2018-04-26T03:08:18.419Z,87.95
2018-04-26T03:10:46.591Z,87.85
2018-04-26T03:13:14.864Z,88.05
2018-04-26T03:15:43.880Z,89.06
2018-04-26T03:18:12.910Z,89.66
2018-04-26T03:20:41.179Z,88.80
2018-04-26T03:23:10.226Z,88.69
2018-04-26T03:25:38.493Z,88.15
2018-04-26T03:28:06.764Z,87.88
2018-04-26T03:30:35.049Z,87.84
2018-04-26T03:33:03.330Z,87.35
2018-04-26T03:35:31.603Z,87.82
2018-04-26T03:37:59.875Z,86.37
2018-04-26T03:40:28.144Z,86.51
2018-04-26T03:42:56.412Z,86.23
2018-04-26T03:45:25.429Z,85.95
2018-04-26T03:47:53.691Z,86.28
2018-04-26T03:50:22.703Z,86.54
2018-04-26T03:52:50.971Z,88.24
2018-04-26T03:55:19.989Z,88.43
2018-04-26T03:57:48.251Z,89.67
2018-04-26T04:00:34.072Z,88.59
2018-04-26T04:03:19.931Z,89.75
2018-04-26T04:08:55.671Z,88.25
2018-04-26T04:11:23.923Z,88.37
2018-04-26T04:13:52.991Z,88.89
2018-04-26T04:16:21.231Z,87.99
2018-04-26T04:18:49.493Z,88.51
2018-04-26T04:21:18.523Z,87.88
2018-04-26T04:23:46.792Z,88.48
2018-04-26T04:26:15.061Z,89.52
2018-04-26T04:28:44.075Z,89.77
2018-04-26T04:31:12.336Z,89.51
2018-04-26T04:33:41.364Z,89.58
2018-04-26T04:36:09.625Z,89.44
2018-04-26T04:38:37.879Z,89.11
2018-04-26T04:41:06.126Z,88.64
2018-04-26T04:43:34.394Z,89.52
2018-04-26T04:46:02.645Z,89.50
2018-04-26T04:48:30.915Z,89.42
2018-04-26T04:50:59.923Z,90.03
2018-04-26T04:53:28.186Z,89.54
2018-04-26T04:55:57.202Z,89.65
2018-04-26T04:58:25.471Z,89.72
2018-04-26T05:00:54.492Z,89.47
2018-04-26T05:03:22.744Z,89.60
2018-04-26T05:05:51.765Z,89.06
2018-04-26T05:08:20.014Z,89.25
2018-04-26T05:10:49.031Z,88.07
2018-04-26T05:13:18.050Z,86.76
2018-04-26T05:15:46.300Z,87.18
2018-04-26T05:18:15.342Z,86.17
2018-04-26T05:20:43.587Z,84.87
2018-04-26T05:23:12.606Z,85.96
2018-04-26T05:25:40.929Z,86.59
2018-04-26T05:28:09.144Z,87.50
2018-04-26T05:30:38.157Z,85.96
2018-04-26T05:33:06.399Z,84.05
2018-04-26T05:35:34.655Z,82.62
2018-04-26T05:38:02.898Z,84.50
2018-04-26T05:40:31.183Z,84.61
2018-04-26T05:43:00.160Z,84.31
2018-04-26T05:45:29.173Z,84.76
2018-04-26T05:47:57.415Z,85.26
2018-04-26T05:50:25.667Z,85.29
2018-04-26T05:52:53.916Z,84.19
2018-04-26T05:55:22.170Z,84.73
2018-04-26T05:57:51.185Z,86.00
2018-04-26T06:00:19.890Z,85.76
2018-04-26T06:02:48.130Z,85.22
2018-04-26T06:05:17.156Z,85.95
2018-04-26T06:07:46.639Z,84.71
2018-04-26T06:10:15.669Z,85.20
2018-04-26T06:12:43.907Z,85.16
2018-04-26T06:15:12.171Z,86.08
2018-04-26T06:17:40.415Z,85.22
2018-04-26T06:20:08.667Z,84.73
2018-04-26T06:22:37.685Z,84.98
2018-04-26T06:25:05.976Z,81.83
2018-04-26T06:27:34.971Z,84.52
2018-04-26T06:30:03.227Z,84.03
2018-04-26T06:32:32.227Z,84.62
2018-04-26T06:35:01.243Z,86.58
2018-04-26T06:37:29.488Z,85.05
2018-04-26T06:39:58.504Z,83.81
2018-04-26T06:42:26.801Z,83.05
2018-04-26T06:44:55.008Z,83.68
2018-04-26T06:47:23.255Z,83.10
2018-04-26T06:49:51.511Z,81.28
2018-04-26T06:52:20.519Z,83.54
2018-04-26T06:54:48.775Z,83.42
2018-04-26T06:57:17.018Z,82.75
2018-04-26T06:59:45.275Z,81.48
2018-04-26T07:02:13.510Z,80.32
2018-04-26T07:04:41.767Z,80.52
2018-04-26T07:07:10.079Z,79.88
2018-04-26T07:09:38.264Z,81.90
2018-04-26T07:12:07.384Z,80.07
2018-04-26T07:14:35.523Z,80.73
2018-04-26T07:17:03.944Z,79.17
2018-04-26T07:19:32.134Z,80.07
2018-04-26T07:22:00.390Z,80.27
2018-04-26T07:24:29.410Z,80.08
2018-04-26T07:26:57.661Z,80.73
2018-04-26T07:29:26.675Z,81.26
2018-04-26T07:31:55.698Z,80.09
2018-04-26T07:34:23.931Z,80.44
2018-04-26T07:36:52.192Z,80.99
2018-04-26T07:39:20.432Z,81.66
2018-04-26T07:41:49.933Z,82.18
2018-04-26T07:44:18.192Z,80.59
2018-04-26T07:46:47.498Z,82.10
2018-04-26T07:49:16.499Z,80.78
2018-04-26T07:51:45.523Z,79.81
2018-04-26T07:54:13.764Z,79.72
2018-04-26T07:56:42.783Z,80.26
2018-04-26T07:59:11.028Z,81.19
2018-04-26T08:01:39.440Z,82.10
2018-04-26T08:04:07.542Z,82.91
2018-04-26T08:06:35.788Z,82.27
2018-04-26T08:09:05.379Z,80.79
2018-04-26T08:11:33.639Z,78.86
2018-04-26T08:14:01.892Z,76.94
2018-04-26T08:16:30.164Z,75.78
2018-04-26T08:18:58.402Z,73.73
2018-04-26T08:21:26.668Z,73.20
2018-04-26T08:23:54.928Z,72.99
2018-04-26T08:26:23.191Z,72.98
2018-04-26T08:28:51.994Z,70.32
2018-04-26T08:31:20.256Z,71.83
2018-04-26T08:33:48.511Z,71.72
2018-04-26T08:36:17.530Z,69.93
2018-04-26T08:38:45.791Z,68.23
2018-04-26T08:41:14.819Z,66.52
2018-04-26T08:43:43.071Z,63.97
2018-04-26T08:46:12.202Z,64.92
2018-04-26T08:48:40.470Z,64.87
2018-04-26T08:51:08.744Z,64.74
2018-04-26T08:53:37.008Z,66.63
2018-04-26T08:56:06.047Z,66.88
2018-04-26T08:58:34.408Z,67.03
2018-04-26T09:01:02.670Z,67.98
2018-04-26T09:03:31.692Z,66.42
2018-04-26T09:05:59.965Z,69.84
2018-04-26T09:08:28.234Z,67.61
2018-04-26T09:10:57.254Z,71.33
2018-04-26T09:13:25.524Z,70.47
2018-04-26T09:15:53.864Z,71.32
2018-04-26T09:18:22.827Z,70.73
2018-04-26T09:20:52.641Z,68.87
2018-04-26T09:23:20.905Z,69.49
2018-04-26T09:25:49.161Z,66.52
2018-04-26T09:28:17.442Z,64.05
2018-04-26T09:30:46.460Z,64.30
2018-04-26T09:33:15.099Z,61.58
2018-04-26T09:35:43.378Z,63.54
2018-04-26T09:38:12.514Z,62.65
2018-04-26T09:40:42.039Z,63.38
2018-04-26T09:43:10.315Z,65.67
2018-04-26T09:45:38.590Z,67.11
2018-04-26T09:48:06.861Z,66.41
2018-04-26T09:50:35.890Z,66.06
2018-04-26T09:53:04.347Z,65.04
2018-04-26T09:55:32.631Z,63.04
2018-04-26T09:58:01.622Z,63.20
2018-04-26T10:00:29.891Z,64.91
2018-04-26T10:02:58.927Z,64.72
2018-04-26T10:05:32.846Z,65.55
2018-04-26T10:08:01.199Z,66.03
2018-04-26T10:10:29.478Z,66.72
2018-04-26T10:12:57.739Z,68.46
2018-04-26T10:15:26.767Z,69.90
2018-04-26T10:17:55.452Z,68.72
2018-04-26T10:20:23.715Z,69.17
2018-04-26T10:22:52.751Z,70.00
2018-04-26T10:25:23.927Z,67.57
2018-04-26T10:27:52.195Z,68.07
2018-04-26T10:30:20.879Z,69.25
2018-04-26T10:32:49.239Z,71.30
2018-04-26T10:35:19.578Z,74.03
2018-04-26T10:37:47.845Z,74.77
2018-04-26T10:40:16.108Z,76.74
2018-04-26T10:42:44.408Z,76.07
2018-04-26T10:45:12.660Z,80.28
2018-04-26T10:47:41.774Z,77.71
2018-04-26T10:50:10.024Z,74.74
2018-04-26T10:52:38.303Z,72.65
2018-04-26T10:55:06.628Z,73.30
2018-04-26T10:57:34.895Z,73.16
2018-04-26T11:00:03.207Z,69.97
2018-04-26T11:02:31.455Z,68.74
2018-04-26T11:05:00.344Z,68.73
2018-04-26T11:07:29.382Z,68.41
2018-04-26T11:09:57.912Z,67.73
2018-04-26T11:12:27.034Z,68.50
2018-04-26T11:14:56.051Z,69.08
2018-04-26T11:17:24.327Z,69.31
2018-04-26T11:19:52.609Z,68.91
2018-04-26T11:22:20.862Z,68.69
2018-04-26T11:24:49.895Z,67.75
2018-04-26T11:27:18.157Z,68.00
2018-04-26T11:29:46.417Z,66.08
2018-04-26T11:32:15.426Z,65.22
2018-04-26T11:34:44.461Z,65.99
2018-04-26T11:37:15.166Z,65.44
2018-04-26T11:39:43.433Z,64.14
2018-04-26T11:42:12.509Z,64.26
2018-04-26T11:44:40.822Z,63.16
2018-04-26T11:47:09.841Z,65.01
2018-04-26T11:49:38.112Z,65.64
2018-04-26T11:52:06.376Z,64.16
2018-04-26T11:54:35.404Z,63.25
2018-04-26T11:57:03.665Z,63.24
2018-04-26T11:59:32.688Z,64.49
2018-04-26T12:02:03.731Z,62.84
2018-04-26T12:04:31.990Z,63.12
2018-04-26T12:07:00.259Z,62.54
2018-04-26T12:09:29.289Z,62.88
2018-04-26T12:11:57.538Z,62.13
2018-04-26T12:14:26.589Z,63.25
2018-04-26T12:16:54.834Z,62.69
2018-04-26T12:19:23.100Z,61.07
2018-04-26T12:21:51.358Z,60.04
2018-04-26T12:24:20.223Z,60.50
2018-04-26T12:26:48.496Z,61.30
2018-04-26T12:29:16.845Z,62.59
2018-04-26T12:31:45.014Z,61.23
2018-04-26T12:34:13.278Z,60.83
2018-04-26T12:36:42.304Z,62.67
2018-04-26T12:39:10.623Z,60.76
2018-04-26T12:41:38.891Z,61.36
2018-04-26T12:44:07.151Z,60.72
2018-04-26T12:46:35.415Z,59.82
2018-04-26T12:49:04.436Z,60.40
2018-04-26T12:51:32.698Z,60.87
2018-04-26T12:54:00.956Z,62.03
2018-04-26T12:56:29.996Z,60.84
2018-04-26T12:58:58.255Z,59.97
2018-04-26T13:01:26.524Z,59.83
2018-04-26T13:03:55.540Z,61.16
2018-04-26T13:06:23.910Z,59.69
2018-04-26T13:08:53.964Z,59.90
2018-04-26T13:11:22.230Z,56.75
2018-04-26T13:13:50.493Z,53.42
2018-04-26T13:16:19.520Z,47.74
2018-04-26T13:18:47.775Z,48.85
2018-04-26T13:21:16.131Z,48.63
2018-04-26T13:23:45.068Z,45.84
2018-04-26T13:26:13.336Z,47.17
2018-04-26T13:28:42.350Z,49.62
2018-04-26T13:31:10.624Z,54.17
2018-04-26T13:33:38.874Z,53.23
2018-04-26T13:36:07.903Z,57.55
2018-04-26T13:38:36.159Z,59.26
2018-04-26T13:41:05.205Z,58.35
2018-04-26T13:43:33.458Z,60.47
2018-04-26T13:46:02.505Z,61.31
2018-04-26T13:48:30.852Z,59.69
2018-04-26T13:50:59.128Z,62.64
2018-04-26T13:53:27.378Z,62.30
2018-04-26T13:55:56.407Z,60.19
2018-04-26T13:58:24.718Z,63.65
2018-04-26T14:00:52.989Z,62.98
2018-04-26T14:03:21.242Z,61.17
2018-04-26T14:05:49.506Z,61.28
2018-04-26T14:08:18.534Z,62.90
2018-04-26T14:10:46.803Z,64.50
2018-04-26T14:13:15.058Z,63.85
2018-04-26T14:15:44.090Z,65.07
2018-04-26T14:18:12.347Z,65.29
2018-04-26T14:20:40.637Z,65.22
2018-04-26T14:23:08.993Z,67.30
2018-04-26T14:25:37.187Z,65.75
2018-04-26T14:28:05.456Z,66.51
2018-04-26T14:30:34.485Z,67.92
2018-04-26T14:33:02.747Z,66.98
2018-04-26T14:35:31.767Z,66.84
2018-04-26T14:38:00.054Z,65.07
2018-04-26T14:40:28.317Z,64.14
2018-04-26T14:42:56.583Z,64.51
2018-04-26T14:45:24.840Z,62.60
2018-04-26T14:47:53.099Z,64.38
2018-04-26T14:50:21.375Z,64.81
2018-04-26T14:52:49.668Z,63.59
2018-04-26T14:55:17.942Z,64.17
2018-04-26T14:57:46.208Z,64.07
2018-04-26T15:00:14.465Z,64.77
2018-04-26T15:02:42.732Z,64.84
2018-04-26T15:05:11.013Z,63.63
2018-04-26T15:07:39.295Z,64.39
2018-04-26T15:10:08.314Z,63.16
2018-04-26T15:12:36.590Z,63.12
2018-04-26T15:15:04.847Z,64.28
2018-04-26T15:17:33.127Z,63.24
2018-04-26T15:20:01.390Z,63.16
2018-04-26T15:22:29.651Z,63.46
2018-04-26T15:24:57.907Z,62.70
2018-04-26T15:27:26.179Z,60.68
2018-04-26T15:29:54.441Z,60.66
2018-04-26T15:32:22.713Z,60.97
2018-04-26T15:34:50.971Z,59.94
2018-04-26T15:37:20.014Z,59.23
2018-04-26T15:39:48.271Z,59.09
2018-04-26T15:42:16.555Z,58.86
2018-04-26T15:44:44.798Z,59.89
2018-04-26T15:47:13.059Z,59.75
2018-04-26T15:49:41.336Z,58.27
2018-04-26T15:52:09.600Z,58.46
2018-04-26T15:54:37.853Z,58.47
2018-04-26T15:57:32.021Z,57.15
2018-04-26T16:00:24.029Z,56.86
2018-04-26T16:06:32.432Z,55.84
2018-04-26T16:12:34.291Z,55.83
2018-04-26T16:15:21.188Z,56.09
2018-04-26T16:18:13.451Z,55.14
2018-04-26T16:21:04.941Z,56.53
2018-04-26T16:23:56.335Z,55.99
2018-04-26T16:26:42.043Z,56.82
2018-04-26T16:29:33.387Z,55.59
2018-04-26T16:32:24.734Z,57.14
2018-04-26T16:35:16.104Z,57.98
2018-04-26T16:38:07.463Z,57.71
2018-04-26T16:40:35.714Z,57.77
2018-04-26T16:43:04.842Z,54.99
2018-04-26T16:45:33.027Z,55.13
2018-04-26T16:48:01.286Z,55.73
2018-04-26T16:50:29.544Z,55.33
2018-04-26T16:52:57.814Z,55.91
2018-04-26T16:55:26.071Z,55.31
2018-04-26T16:57:54.334Z,54.77
2018-04-26T17:00:22.581Z,55.55
2018-04-26T17:02:51.611Z,56.33
2018-04-26T17:05:19.867Z,56.38
2018-04-26T17:07:48.902Z,56.28
2018-04-26T17:10:17.164Z,56.80
2018-04-26T17:12:45.414Z,57.01
2018-04-26T17:15:14.450Z,57.16
2018-04-26T17:17:42.703Z,59.22
2018-04-26T17:20:11.734Z,59.06
2018-04-26T17:22:40.113Z,58.94
2018-04-26T17:25:09.014Z,58.87
2018-04-26T17:27:37.266Z,58.88
2018-04-26T17:30:05.524Z,60.00
2018-04-26T17:32:34.551Z,59.92
2018-04-26T17:35:02.836Z,59.39
2018-04-26T17:37:31.100Z,59.53
2018-04-26T17:39:59.417Z,59.87
2018-04-26T17:42:28.003Z,59.67
2018-04-26T17:44:56.270Z,60.77
2018-04-26T17:47:24.531Z,61.44
2018-04-26T17:49:53.551Z,62.36
2018-04-26T17:52:21.806Z,62.07
2018-04-26T17:54:50.073Z,65.41
2018-04-26T17:57:19.100Z,62.72
2018-04-26T17:59:47.367Z,63.32
2018-04-26T18:02:15.691Z,64.38
2018-04-26T18:04:43.964Z,64.48
2018-04-26T18:07:12.222Z,65.22
2018-04-26T18:09:40.511Z,65.65
2018-04-26T18:12:08.759Z,66.50
2018-04-26T18:14:37.791Z,68.94
2018-04-26T18:17:06.152Z,66.06
2018-04-26T18:19:35.246Z,69.85
2018-04-26T18:22:03.428Z,71.52
2018-04-26T18:24:31.699Z,75.25
2018-04-26T18:27:00.715Z,76.85
2018-04-26T18:29:28.979Z,74.57
2018-04-26T18:31:58.052Z,76.22
2018-04-26T18:34:26.275Z,77.15
2018-04-26T18:36:54.515Z,78.08
2018-04-26T18:39:22.775Z,78.04
2018-04-26T18:41:51.027Z,78.46
2018-04-26T18:44:19.290Z,78.70
2018-04-26T18:46:47.532Z,78.50
2018-04-26T18:49:15.789Z,79.77
2018-04-26T18:51:44.041Z,80.46
2018-04-26T18:54:14.097Z,81.30
2018-04-26T18:56:42.347Z,81.53
2018-04-26T18:59:10.607Z,81.85
2018-04-26T19:01:38.859Z,79.84
2018-04-26T19:04:07.101Z,77.92
2018-04-26T19:06:35.374Z,77.88
2018-04-26T19:09:03.611Z,78.79
2018-04-26T19:11:32.640Z,80.89
2018-04-26T19:14:00.884Z,82.30
2018-04-26T19:16:29.135Z,83.09
2018-04-26T19:18:57.384Z,83.97
2018-04-26T19:21:25.643Z,84.94
2018-04-26T19:23:54.656Z,84.98
2018-04-26T19:26:22.924Z,84.83
2018-04-26T19:28:51.932Z,83.88
2018-04-26T19:31:20.199Z,83.65
2018-04-26T19:33:49.212Z,81.34
2018-04-26T19:36:17.463Z,82.36
2018-04-26T19:38:46.474Z,83.71
2018-04-26T19:41:15.514Z,84.88
2018-04-26T19:43:43.772Z,83.44
2018-04-26T19:46:12.025Z,85.83
2018-04-26T19:48:41.033Z,83.86
2018-04-26T19:51:10.051Z,85.08
2018-04-26T19:53:38.315Z,86.54
2018-04-26T19:56:06.574Z,86.80
2018-04-26T19:58:34.827Z,87.36
2018-04-26T20:01:03.091Z,87.50
2018-04-26T20:03:31.337Z,87.07
2018-04-26T20:05:59.591Z,87.00
2018-04-26T20:08:29.843Z,86.96
2018-04-26T20:10:58.124Z,86.67
2018-04-26T20:13:27.118Z,87.07
2018-04-26T20:15:55.375Z,86.28
2018-04-26T20:18:24.417Z,87.21
2018-04-26T20:20:53.581Z,87.70
2018-04-26T20:23:21.814Z,87.74
2018-04-26T20:25:50.051Z,85.69
2018-04-26T20:28:19.075Z,85.29
2018-04-26T20:30:47.327Z,86.68
2018-04-26T20:33:16.339Z,86.70
2018-04-26T20:35:44.591Z,87.42
2018-04-26T20:38:13.605Z,87.74
2018-04-26T20:40:42.626Z,88.21
2018-04-26T20:43:10.938Z,87.81
2018-04-26T20:45:39.906Z,87.56
2018-04-26T20:48:08.166Z,88.31
2018-04-26T20:50:36.423Z,87.76
2018-04-26T20:53:04.673Z,87.82
2018-04-26T20:55:32.922Z,85.60
2018-04-26T20:58:02.278Z,85.23
2018-04-26T21:00:30.516Z,85.22
2018-04-26T21:02:58.771Z,84.41
2018-04-26T21:05:27.021Z,84.25
2018-04-26T21:07:55.276Z,84.43
2018-04-26T21:10:23.525Z,84.53
2018-04-26T21:12:51.796Z,85.23
2018-04-26T21:15:20.798Z,84.59
2018-04-26T21:17:49.047Z,84.53
2018-04-26T21:20:18.404Z,84.67
2018-04-26T21:22:46.661Z,84.84
2018-04-26T21:25:14.927Z,87.51
2018-04-26T21:27:43.945Z,88.50
2018-04-26T21:30:12.186Z,89.28
2018-04-26T21:32:40.431Z,89.87
2018-04-26T21:35:08.680Z,90.45
2018-04-26T21:37:36.951Z,90.82
2018-04-26T21:40:05.972Z,90.98
2018-04-26T21:42:34.219Z,91.20
2018-04-26T21:45:03.226Z,90.77
2018-04-26T21:47:31.483Z,91.37
2018-04-26T21:50:05.347Z,91.97
2018-04-26T21:52:38.977Z,92.04
2018-04-26T21:55:14.130Z,92.08
2018-04-26T21:57:47.788Z,92.21
2018-04-26T22:00:21.539Z,92.18
2018-04-26T22:02:49.144Z,91.11
2018-04-26T22:05:17.814Z,89.88
2018-04-26T22:07:47.095Z,90.38
2018-04-26T22:10:15.344Z,91.83
2018-04-26T22:12:43.579Z,91.96
2018-04-26T22:15:12.608Z,91.66
2018-04-26T22:17:40.859Z,91.69
2018-04-26T22:20:09.116Z,91.58
2018-04-26T22:22:38.145Z,91.13
2018-04-26T22:25:06.382Z,89.66
2018-04-26T22:27:34.646Z,89.50
2018-04-26T22:30:02.896Z,89.84
2018-04-26T22:32:31.158Z,91.11
2018-04-26T22:35:00.163Z,92.07
2018-04-26T22:37:28.425Z,92.18
2018-04-26T22:39:57.422Z,91.43
2018-04-26T22:42:26.447Z,92.62
2018-04-26T22:44:54.681Z,93.33
2018-04-26T22:47:22.942Z,92.93
2018-04-26T22:49:51.181Z,92.32
2018-04-26T22:52:19.446Z,92.08
2018-04-26T22:54:48.463Z,92.14
2018-04-26T22:57:16.710Z,91.86
2018-04-26T22:59:45.726Z,92.07
2018-04-26T23:02:14.222Z,92.67
2018-04-26T23:04:42.462Z,92.46
2018-04-26T23:07:10.729Z,92.56
2018-04-26T23:09:38.975Z,92.75
2018-04-26T23:12:07.222Z,93.10
2018-04-26T23:14:36.250Z,92.73
2018-04-26T23:17:04.511Z,92.55
2018-04-26T23:19:33.532Z,92.50
2018-04-26T23:22:01.778Z,91.64
2018-04-26T23:24:30.801Z,92.29
2018-04-26T23:26:59.037Z,92.87
2018-04-26T23:29:27.295Z,92.88
2018-04-26T23:31:55.537Z,92.83
2018-04-26T23:34:23.797Z,92.99
2018-04-26T23:36:52.798Z,92.98
2018-04-26T23:39:21.827Z,93.10
2018-04-26T23:41:50.066Z,93.12
2018-04-26T23:44:19.110Z,92.79
2018-04-26T23:46:47.344Z,92.96
2018-04-26T23:49:16.369Z,92.59
2018-04-26T23:51:44.622Z,92.62
2018-04-26T23:54:13.630Z,93.07
2018-04-26T23:56:42.650Z,93.14
2018-04-26T23:59:10.912Z,93.20
